createdAt,value
2022-08-29T00:01:13.463Z,14.28
2022-08-29T00:03:31.929Z,14.21
2022-08-29T00:05:50.126Z,14.18
2022-08-29T00:08:07.580Z,14.16
2022-08-29T00:10:24.997Z,14.12
2022-08-29T00:12:42.304Z,14.10
2022-08-29T00:14:59.244Z,14.08
2022-08-29T00:17:16.578Z,14.04
2022-08-29T00:19:34.423Z,14.07
2022-08-29T00:21:51.454Z,14.03
2022-08-29T00:24:08.962Z,13.97
2022-08-29T00:26:27.118Z,13.93
2022-08-29T00:28:50.043Z,13.91
2022-08-29T00:31:07.079Z,13.91
2022-08-29T00:33:24.292Z,13.90
2022-08-29T00:35:41.774Z,13.93
2022-08-29T00:37:58.778Z,13.85
2022-08-29T00:40:17.160Z,13.83
2022-08-29T00:42:34.262Z,13.82
2022-08-29T00:44:51.322Z,13.80
2022-08-29T00:47:08.774Z,13.72
2022-08-29T00:49:26.039Z,13.68
2022-08-29T00:51:43.065Z,13.66
2022-08-29T00:54:00.074Z,13.66
2022-08-29T00:56:17.517Z,13.62
2022-08-29T00:58:35.485Z,13.58
2022-08-29T01:00:52.647Z,13.59
2022-08-29T01:03:10.018Z,13.57
2022-08-29T01:05:27.136Z,13.53
2022-08-29T01:07:47.131Z,13.52
2022-08-29T01:10:13.269Z,13.50
2022-08-29T01:12:31.005Z,13.48
2022-08-29T01:14:48.115Z,13.43
2022-08-29T01:17:05.430Z,13.41
2022-08-29T01:19:23.422Z,13.36
2022-08-29T01:21:45.018Z,13.32
2022-08-29T01:24:02.023Z,13.33
2022-08-29T01:26:20.495Z,13.33
2022-08-29T01:28:37.747Z,13.32
2022-08-29T01:30:56.001Z,13.31
2022-08-29T01:33:13.058Z,13.29
2022-08-29T01:35:32.205Z,13.31
2022-08-29T01:37:50.647Z,13.29
2022-08-29T01:40:07.706Z,13.25
2022-08-29T01:42:24.774Z,13.25
2022-08-29T01:44:41.888Z,13.25
2022-08-29T01:47:03.075Z,13.23
2022-08-29T01:49:20.578Z,13.21
2022-08-29T01:51:37.678Z,13.23
2022-08-29T01:53:54.587Z,13.22
2022-08-29T01:56:11.510Z,13.15
2022-08-29T01:58:28.802Z,13.16
2022-08-29T02:00:46.168Z,13.15
2022-08-29T02:03:04.209Z,13.08
2022-08-29T02:05:21.530Z,13.08
2022-08-29T02:07:39.594Z,13.10
2022-08-29T02:09:56.501Z,13.04
2022-08-29T02:12:13.498Z,13.02
2022-08-29T02:14:30.740Z,12.97
2022-08-29T02:16:47.867Z,12.94
2022-08-29T02:19:04.997Z,12.94
2022-08-29T02:21:21.922Z,13.00
2022-08-29T02:23:39.018Z,12.97
2022-08-29T02:25:57.393Z,12.97
2022-08-29T02:28:15.639Z,12.94
2022-08-29T02:30:32.866Z,12.93
2022-08-29T02:32:49.793Z,12.94
2022-08-29T02:35:07.670Z,12.94
2022-08-29T02:37:28.157Z,12.94
2022-08-29T02:39:45.505Z,12.97
2022-08-29T02:42:03.917Z,12.93
2022-08-29T02:44:21.182Z,12.94
2022-08-29T02:46:39.044Z,12.92
2022-08-29T02:49:00.481Z,12.93
2022-08-29T02:51:18.735Z,12.93
2022-08-29T02:53:35.916Z,12.92
2022-08-29T02:55:53.952Z,12.96
2022-08-29T02:58:10.942Z,12.93
2022-08-29T03:00:28.136Z,12.93
2022-08-29T03:02:45.313Z,12.91
2022-08-29T03:05:02.313Z,12.93
2022-08-29T03:07:20.353Z,12.94
2022-08-29T03:09:38.431Z,12.93
2022-08-29T03:11:55.771Z,12.88
2022-08-29T03:14:12.857Z,12.83
2022-08-29T03:16:33.096Z,12.81
2022-08-29T03:18:50.445Z,12.80
2022-08-29T03:21:08.105Z,12.84
2022-08-29T03:23:26.433Z,12.79
2022-08-29T03:25:43.440Z,12.81
2022-08-29T03:28:00.740Z,12.83
2022-08-29T03:30:18.007Z,12.74
2022-08-29T03:32:35.036Z,12.72
2022-08-29T03:34:51.998Z,12.72
2022-08-29T03:37:09.048Z,12.70
2022-08-29T03:39:26.061Z,12.72
2022-08-29T03:41:43.066Z,12.68
2022-08-29T03:44:00.123Z,12.66
2022-08-29T03:46:17.383Z,12.63
2022-08-29T03:48:34.429Z,12.67
2022-08-29T03:50:55.844Z,12.68
2022-08-29T03:53:13.797Z,12.72
2022-08-29T03:55:31.144Z,12.75
2022-08-29T03:57:48.453Z,12.71
2022-08-29T04:00:07.978Z,12.70
2022-08-29T04:02:26.013Z,12.73
2022-08-29T04:04:44.936Z,12.77
2022-08-29T04:07:02.939Z,12.79
2022-08-29T04:09:20.288Z,12.78
2022-08-29T04:11:37.331Z,12.79
2022-08-29T04:13:54.593Z,12.81
2022-08-29T04:16:11.716Z,12.83
2022-08-29T04:18:28.761Z,12.87
2022-08-29T04:20:45.704Z,12.93
2022-08-29T04:23:03.027Z,12.96
2022-08-29T04:25:19.993Z,13.02
2022-08-29T04:27:37.236Z,13.01
2022-08-29T04:29:55.292Z,12.97
2022-08-29T04:32:12.373Z,12.98
2022-08-29T04:34:29.436Z,13.03
2022-08-29T04:36:46.527Z,13.07
2022-08-29T04:39:03.440Z,13.08
2022-08-29T04:41:20.361Z,13.04
2022-08-29T04:43:37.271Z,13.02
2022-08-29T04:45:54.609Z,12.99
2022-08-29T04:48:11.937Z,12.99
2022-08-29T04:50:28.918Z,12.97
2022-08-29T04:52:45.924Z,12.96
2022-08-29T04:55:03.223Z,12.94
2022-08-29T04:57:21.213Z,12.94
2022-08-29T04:59:38.806Z,12.94
2022-08-29T05:01:56.120Z,12.91
2022-08-29T05:04:14.653Z,12.93
2022-08-29T05:06:32.031Z,12.95
2022-08-29T05:08:48.965Z,12.95
2022-08-29T05:11:16.321Z,12.96
2022-08-29T05:13:40.233Z,13.01
2022-08-29T05:16:00.037Z,13.03
2022-08-29T05:18:18.391Z,13.09
2022-08-29T05:20:35.452Z,13.10
2022-08-29T05:22:52.716Z,13.10
2022-08-29T05:25:11.568Z,13.16
2022-08-29T05:27:31.545Z,13.22
2022-08-29T05:29:48.619Z,13.28
2022-08-29T05:32:05.827Z,13.38
2022-08-29T05:34:34.742Z,13.45
2022-08-29T05:36:52.466Z,13.52
2022-08-29T05:39:09.463Z,13.58
2022-08-29T05:41:30.956Z,13.65
2022-08-29T05:43:55.605Z,13.70
2022-08-29T05:46:12.679Z,13.77
2022-08-29T05:48:30.014Z,13.87
2022-08-29T05:50:48.287Z,13.96
2022-08-29T05:53:05.369Z,14.09
2022-08-29T05:55:22.487Z,14.13
2022-08-29T05:57:39.503Z,14.19
2022-08-29T05:59:56.538Z,14.22
2022-08-29T06:02:13.547Z,14.29
2022-08-29T06:04:30.704Z,14.46
2022-08-29T06:06:47.592Z,14.55
2022-08-29T06:09:04.506Z,14.59
2022-08-29T06:11:21.483Z,14.63
2022-08-29T06:13:38.422Z,14.74
2022-08-29T06:15:55.440Z,14.81
2022-08-29T06:18:12.725Z,14.91
2022-08-29T06:20:29.824Z,15.05
2022-08-29T06:22:47.090Z,15.06
2022-08-29T06:25:21.791Z,15.20
2022-08-29T06:27:41.658Z,15.34
2022-08-29T06:30:01.722Z,15.52
2022-08-29T06:32:19.100Z,15.64
2022-08-29T06:34:36.248Z,15.96
2022-08-29T06:36:53.197Z,16.05
2022-08-29T06:39:10.541Z,16.17
2022-08-29T06:41:27.900Z,16.20
2022-08-29T06:43:44.865Z,16.23
2022-08-29T06:46:01.902Z,16.31
2022-08-29T06:48:19.210Z,16.40
2022-08-29T06:50:36.235Z,16.55
2022-08-29T06:52:55.615Z,16.66
2022-08-29T06:55:13.048Z,16.83
2022-08-29T06:57:32.091Z,16.93
2022-08-29T06:59:49.165Z,17.04
2022-08-29T07:02:06.208Z,17.09
2022-08-29T07:04:26.468Z,17.15
2022-08-29T07:06:44.169Z,17.34
2022-08-29T07:09:02.173Z,17.43
2022-08-29T07:11:19.262Z,17.54
2022-08-29T07:13:36.531Z,17.51
2022-08-29T07:15:53.762Z,17.50
2022-08-29T07:18:10.898Z,17.58
2022-08-29T07:20:27.893Z,17.64
2022-08-29T07:22:44.834Z,17.81
2022-08-29T07:25:02.102Z,17.95
2022-08-29T07:27:19.348Z,17.98
2022-08-29T07:29:36.433Z,18.16
2022-08-29T07:31:53.465Z,18.24
2022-08-29T07:34:10.511Z,18.30
2022-08-29T07:36:27.570Z,18.37
2022-08-29T07:38:44.718Z,18.54
2022-08-29T07:41:01.797Z,18.74
2022-08-29T07:43:20.471Z,19.00
2022-08-29T07:45:39.586Z,19.12
2022-08-29T07:47:56.780Z,19.41
2022-08-29T07:50:13.986Z,19.57
2022-08-29T07:52:31.301Z,19.70
2022-08-29T07:54:48.620Z,19.95
2022-08-29T07:57:05.567Z,20.03
2022-08-29T07:59:22.771Z,20.12
2022-08-29T08:01:39.739Z,20.25
2022-08-29T08:03:57.254Z,20.49
2022-08-29T08:06:14.601Z,20.65
2022-08-29T08:08:31.778Z,20.70
2022-08-29T08:10:52.192Z,20.69
2022-08-29T08:13:09.418Z,20.58
2022-08-29T08:15:26.409Z,20.56
2022-08-29T08:17:44.944Z,20.51
2022-08-29T08:20:01.993Z,20.59
2022-08-29T08:22:18.969Z,20.56
2022-08-29T08:24:36.321Z,20.56
2022-08-29T08:26:53.343Z,20.61
2022-08-29T08:29:10.453Z,20.68
2022-08-29T08:31:27.581Z,20.72
2022-08-29T08:33:45.203Z,20.94
2022-08-29T08:36:02.497Z,21.04
2022-08-29T08:38:20.161Z,21.03
2022-08-29T08:40:37.500Z,21.22
2022-08-29T08:42:54.692Z,21.31
2022-08-29T08:45:11.761Z,21.50
2022-08-29T08:47:28.737Z,21.67
2022-08-29T08:49:46.087Z,21.89
2022-08-29T08:52:04.087Z,22.12
2022-08-29T08:54:21.139Z,22.40
2022-08-29T08:56:38.495Z,22.52
2022-08-29T08:58:55.493Z,22.76
2022-08-29T09:01:13.532Z,22.84
2022-08-29T09:03:30.620Z,22.84
2022-08-29T09:05:49.319Z,22.97
2022-08-29T09:08:06.548Z,23.16
2022-08-29T09:10:23.876Z,23.05
2022-08-29T09:12:40.916Z,23.12
2022-08-29T09:14:58.909Z,23.26
2022-08-29T09:17:16.249Z,23.38
2022-08-29T09:19:33.235Z,23.46
2022-08-29T09:21:50.623Z,23.69
2022-08-29T09:24:07.896Z,23.69
2022-08-29T09:26:25.167Z,23.79
2022-08-29T09:28:42.228Z,23.98
2022-08-29T09:30:59.369Z,24.07
2022-08-29T09:33:17.781Z,24.11
2022-08-29T09:35:36.113Z,24.23
2022-08-29T09:37:53.152Z,24.30
2022-08-29T09:40:10.227Z,24.42
2022-08-29T09:42:28.680Z,24.55
2022-08-29T09:44:45.539Z,24.74
2022-08-29T09:47:02.565Z,24.61
2022-08-29T09:49:20.579Z,24.90
2022-08-29T09:51:37.545Z,24.81
2022-08-29T09:53:54.871Z,24.82
2022-08-29T09:56:13.162Z,24.76
2022-08-29T09:58:30.236Z,24.83
2022-08-29T10:00:47.245Z,24.98
2022-08-29T10:03:04.296Z,24.93
2022-08-29T10:05:22.074Z,25.24
2022-08-29T10:07:40.009Z,25.25
2022-08-29T10:09:57.642Z,25.52
2022-08-29T10:12:14.845Z,25.73
2022-08-29T10:14:31.891Z,25.72
2022-08-29T10:16:49.906Z,25.74
2022-08-29T10:19:07.574Z,25.75
2022-08-29T10:21:24.653Z,25.79
2022-08-29T10:23:41.688Z,25.97
2022-08-29T10:25:58.670Z,25.92
2022-08-29T10:28:16.752Z,26.09
2022-08-29T10:30:33.818Z,26.09
2022-08-29T10:32:50.871Z,26.27
2022-08-29T10:35:08.249Z,26.27
2022-08-29T10:37:25.283Z,26.30
2022-08-29T10:39:42.539Z,26.47
2022-08-29T10:42:00.265Z,26.43
2022-08-29T10:46:39.055Z,26.72
2022-08-29T10:48:56.087Z,26.87
2022-08-29T10:51:13.462Z,26.84
2022-08-29T10:53:34.575Z,26.86
2022-08-29T10:55:51.883Z,26.72
2022-08-29T10:58:12.626Z,26.74
2022-08-29T11:00:30.877Z,26.82
2022-08-29T11:02:47.906Z,26.68
2022-08-29T11:05:07.531Z,26.72
2022-08-29T11:07:25.853Z,26.89
2022-08-29T11:09:42.910Z,27.16
2022-08-29T11:11:59.815Z,27.38
2022-08-29T11:14:16.814Z,27.36
2022-08-29T11:16:33.954Z,27.39
2022-08-29T11:18:51.057Z,27.24
2022-08-29T11:21:08.141Z,27.33
2022-08-29T11:23:25.118Z,27.37
2022-08-29T11:25:42.522Z,27.30
2022-08-29T11:28:00.107Z,27.43
2022-08-29T11:30:17.105Z,27.65
2022-08-29T11:32:36.141Z,27.83
2022-08-29T11:34:53.352Z,27.89
2022-08-29T11:37:10.387Z,27.84
2022-08-29T11:39:27.683Z,28.08
2022-08-29T11:41:45.058Z,28.20
2022-08-29T11:44:02.334Z,28.28
2022-08-29T11:46:20.751Z,28.32
2022-08-29T11:48:39.978Z,28.39
2022-08-29T11:50:57.318Z,28.44
2022-08-29T11:53:16.771Z,28.45
2022-08-29T11:55:34.332Z,28.51
2022-08-29T11:57:51.275Z,28.81
2022-08-29T12:00:08.307Z,28.81
2022-08-29T12:02:25.277Z,28.86
2022-08-29T12:04:42.378Z,28.85
2022-08-29T12:07:01.391Z,28.65
2022-08-29T12:09:19.896Z,28.58
2022-08-29T12:11:39.058Z,28.89
2022-08-29T12:13:56.467Z,28.87
2022-08-29T12:16:14.856Z,28.99
2022-08-29T12:18:36.213Z,29.01
2022-08-29T12:20:53.531Z,29.00
2022-08-29T12:23:10.809Z,29.01
2022-08-29T12:25:27.790Z,29.16
2022-08-29T12:27:45.101Z,29.05
2022-08-29T12:30:02.280Z,29.21
2022-08-29T12:32:22.295Z,29.13
2022-08-29T12:34:40.866Z,29.42
2022-08-29T12:37:00.109Z,29.27
2022-08-29T12:39:19.524Z,29.08
2022-08-29T12:41:39.063Z,29.24
2022-08-29T12:43:56.827Z,29.41
2022-08-29T12:46:14.201Z,29.62
2022-08-29T12:48:31.304Z,29.64
2022-08-29T12:50:48.636Z,29.61
2022-08-29T12:53:05.867Z,29.63
2022-08-29T12:55:22.975Z,29.63
2022-08-29T12:57:45.973Z,29.63
2022-08-29T13:00:03.095Z,29.77
2022-08-29T13:02:20.551Z,29.72
2022-08-29T13:04:37.934Z,29.81
2022-08-29T13:06:55.011Z,29.75
2022-08-29T13:09:14.423Z,29.74
2022-08-29T13:11:34.641Z,29.59
2022-08-29T13:13:51.952Z,29.95
2022-08-29T13:16:09.345Z,29.88
2022-08-29T13:18:26.379Z,29.91
2022-08-29T13:20:43.683Z,30.02
2022-08-29T13:23:01.659Z,29.75
2022-08-29T13:25:18.810Z,29.59
2022-08-29T13:27:36.139Z,29.65
2022-08-29T13:29:53.597Z,29.62
2022-08-29T13:32:11.628Z,29.81
2022-08-29T13:34:28.939Z,29.87
2022-08-29T13:36:46.144Z,29.99
2022-08-29T13:39:03.188Z,29.95
2022-08-29T13:41:20.322Z,29.92
2022-08-29T13:43:37.689Z,29.94
2022-08-29T13:45:54.848Z,30.14
2022-08-29T13:48:12.174Z,30.14
2022-08-29T13:50:29.166Z,30.16
2022-08-29T13:52:46.479Z,30.21
2022-08-29T13:55:03.792Z,30.21
2022-08-29T13:57:21.085Z,30.20
2022-08-29T13:59:38.296Z,30.14
2022-08-29T14:02:11.418Z,30.40
2022-08-29T14:04:37.973Z,30.30
2022-08-29T14:06:56.388Z,30.15
2022-08-29T14:09:15.806Z,30.21
2022-08-29T14:11:32.877Z,30.33
2022-08-29T14:13:49.992Z,30.39
2022-08-29T14:16:08.045Z,30.35
2022-08-29T14:18:25.453Z,30.38
2022-08-29T14:20:43.884Z,30.38
2022-08-29T14:23:00.913Z,30.49
2022-08-29T14:25:19.398Z,30.47
2022-08-29T14:27:36.475Z,30.30
2022-08-29T14:29:53.598Z,30.36
2022-08-29T14:32:10.935Z,30.19
2022-08-29T14:34:32.170Z,30.32
2022-08-29T14:36:49.636Z,30.39
2022-08-29T14:39:06.633Z,30.39
2022-08-29T14:41:23.810Z,30.32
2022-08-29T14:43:40.888Z,30.30
2022-08-29T14:45:57.988Z,30.21
2022-08-29T14:48:15.479Z,30.12
2022-08-29T14:50:33.051Z,30.03
2022-08-29T14:52:50.414Z,30.17
2022-08-29T14:55:08.299Z,30.09
2022-08-29T14:57:26.607Z,30.11
2022-08-29T14:59:43.876Z,30.38
2022-08-29T15:02:00.898Z,30.23
2022-08-29T15:04:17.981Z,29.98
2022-08-29T15:06:38.857Z,29.99
2022-08-29T15:08:55.870Z,30.07
2022-08-29T15:11:12.948Z,30.07
2022-08-29T15:13:30.275Z,29.94
2022-08-29T15:15:47.303Z,29.90
2022-08-29T15:18:04.476Z,29.98
2022-08-29T15:20:38.768Z,30.01
2022-08-29T15:22:59.104Z,29.85
2022-08-29T15:25:16.192Z,29.59
2022-08-29T15:27:33.263Z,29.62
2022-08-29T15:29:50.309Z,29.63
2022-08-29T15:32:07.305Z,29.63
2022-08-29T15:34:24.232Z,29.66
2022-08-29T15:36:42.275Z,29.69
2022-08-29T15:38:59.535Z,29.68
2022-08-29T15:41:16.832Z,29.74
2022-08-29T15:43:34.083Z,29.67
2022-08-29T15:45:51.143Z,29.67
2022-08-29T15:48:11.697Z,29.63
2022-08-29T15:50:29.205Z,29.61
2022-08-29T15:52:46.470Z,29.55
2022-08-29T15:55:03.735Z,29.37
2022-08-29T15:57:20.978Z,29.40
2022-08-29T15:59:57.059Z,29.40
2022-08-29T16:02:15.076Z,29.32
2022-08-29T16:04:31.997Z,29.26
2022-08-29T16:06:49.219Z,29.32
2022-08-29T16:09:15.115Z,29.27
2022-08-29T16:11:32.906Z,29.35
2022-08-29T16:13:54.979Z,29.27
2022-08-29T16:16:19.604Z,29.25
2022-08-29T16:18:36.689Z,29.23
2022-08-29T16:20:56.720Z,29.06
2022-08-29T16:23:13.869Z,29.03
2022-08-29T16:25:31.238Z,28.61
2022-08-29T16:27:48.143Z,28.59
2022-08-29T16:30:05.207Z,28.49
2022-08-29T16:32:22.257Z,28.35
2022-08-29T16:34:39.213Z,28.24
2022-08-29T16:36:56.285Z,28.15
2022-08-29T16:39:13.310Z,28.10
2022-08-29T16:41:30.406Z,28.04
2022-08-29T16:43:47.470Z,28.00
2022-08-29T16:46:04.739Z,27.88
2022-08-29T16:48:22.139Z,27.87
2022-08-29T16:50:40.157Z,27.85
2022-08-29T16:52:58.674Z,27.84
2022-08-29T16:55:15.666Z,27.73
2022-08-29T16:57:32.744Z,27.76
2022-08-29T16:59:50.061Z,27.67
2022-08-29T17:02:07.357Z,27.64
2022-08-29T17:04:24.368Z,27.50
2022-08-29T17:06:41.397Z,27.49
2022-08-29T17:08:59.324Z,27.45
2022-08-29T17:11:16.602Z,27.35
2022-08-29T17:13:33.849Z,27.31
2022-08-29T17:15:52.928Z,27.18
2022-08-29T17:18:09.879Z,27.08
2022-08-29T17:20:26.788Z,26.96
2022-08-29T17:22:44.100Z,26.84
2022-08-29T17:25:02.348Z,26.72
2022-08-29T17:27:21.639Z,26.57
2022-08-29T17:29:39.284Z,26.39
2022-08-29T17:31:58.863Z,26.21
2022-08-29T17:34:16.153Z,26.03
2022-08-29T17:36:33.179Z,25.78
2022-08-29T17:38:50.436Z,25.61
2022-08-29T17:41:15.224Z,25.47
2022-08-29T17:43:34.246Z,25.24
2022-08-29T17:45:52.597Z,25.06
2022-08-29T17:48:09.739Z,24.76
2022-08-29T17:50:26.848Z,24.62
2022-08-29T17:52:44.045Z,24.41
2022-08-29T17:55:06.517Z,24.22
2022-08-29T17:57:24.315Z,24.08
2022-08-29T17:59:41.725Z,23.89
2022-08-29T18:01:58.800Z,23.72
2022-08-29T18:04:15.953Z,23.54
2022-08-29T18:06:33.321Z,23.42
2022-08-29T18:08:50.268Z,23.25
2022-08-29T18:11:07.253Z,23.10
2022-08-29T18:13:24.165Z,22.98
2022-08-29T18:15:42.449Z,22.84
2022-08-29T18:17:59.362Z,22.74
2022-08-29T18:20:16.632Z,22.64
2022-08-29T18:22:33.690Z,22.58
2022-08-29T18:24:50.914Z,22.44
2022-08-29T18:27:08.407Z,22.31
2022-08-29T18:29:25.335Z,22.16
2022-08-29T18:31:42.320Z,22.07
2022-08-29T18:34:00.995Z,22.03
2022-08-29T18:36:19.539Z,21.92
2022-08-29T18:38:36.475Z,21.82
2022-08-29T18:40:53.863Z,21.70
2022-08-29T18:43:11.335Z,21.64
2022-08-29T18:45:29.641Z,21.56
2022-08-29T18:47:46.935Z,21.49
2022-08-29T18:50:04.218Z,21.49
2022-08-29T18:52:21.853Z,21.43
2022-08-29T18:54:39.828Z,21.34
2022-08-29T18:56:56.866Z,21.28
2022-08-29T18:59:14.140Z,21.17
2022-08-29T19:01:31.218Z,21.05
2022-08-29T19:03:48.335Z,20.95
2022-08-29T19:06:05.788Z,20.84
2022-08-29T19:08:22.731Z,20.76
2022-08-29T19:10:39.748Z,20.69
2022-08-29T19:12:57.066Z,20.61
2022-08-29T19:15:14.062Z,20.51
2022-08-29T19:17:31.370Z,20.45
2022-08-29T19:19:48.393Z,20.39
2022-08-29T19:22:12.467Z,20.26
2022-08-29T19:24:29.784Z,20.17
2022-08-29T19:26:46.719Z,20.08
2022-08-29T19:29:03.809Z,19.95
2022-08-29T19:31:21.181Z,19.92
2022-08-29T19:33:39.172Z,19.87
2022-08-29T19:35:56.439Z,19.80
2022-08-29T19:38:13.759Z,19.73
2022-08-29T19:40:34.997Z,19.68
2022-08-29T19:42:53.297Z,19.63
2022-08-29T19:45:10.370Z,19.52
2022-08-29T19:47:27.625Z,19.46
2022-08-29T19:49:45.591Z,19.40
2022-08-29T19:52:02.561Z,19.33
2022-08-29T19:54:19.619Z,19.28
2022-08-29T19:56:36.565Z,19.24
2022-08-29T19:58:54.334Z,19.15
2022-08-29T20:01:12.374Z,19.06
2022-08-29T20:03:29.794Z,19.00
2022-08-29T20:05:47.084Z,18.94
2022-08-29T20:08:04.009Z,18.92
2022-08-29T20:10:21.901Z,18.85
2022-08-29T20:12:39.727Z,18.82
2022-08-29T20:14:56.957Z,18.75
2022-08-29T20:17:13.888Z,18.71
2022-08-29T20:19:30.855Z,18.63
2022-08-29T20:21:47.915Z,18.58
2022-08-29T20:24:04.933Z,18.52
2022-08-29T20:26:22.165Z,18.43
2022-08-29T20:28:39.202Z,18.44
2022-08-29T20:30:56.118Z,18.44
2022-08-29T20:33:14.051Z,18.34
2022-08-29T20:35:31.145Z,18.26
2022-08-29T20:37:49.322Z,18.27
2022-08-29T20:40:06.632Z,18.18
2022-08-29T20:42:23.902Z,18.09
2022-08-29T20:44:41.012Z,18.12
2022-08-29T20:46:58.068Z,18.07
2022-08-29T20:49:15.340Z,17.98
2022-08-29T20:51:32.619Z,17.89
2022-08-29T20:53:49.936Z,17.92
2022-08-29T20:56:06.993Z,17.80
2022-08-29T20:58:23.997Z,17.79
2022-08-29T21:00:42.444Z,17.71
2022-08-29T21:02:59.540Z,17.63
2022-08-29T21:05:16.866Z,17.60
2022-08-29T21:07:35.327Z,17.58
2022-08-29T21:09:52.574Z,17.56
2022-08-29T21:12:09.562Z,17.51
2022-08-29T21:14:26.498Z,17.46
2022-08-29T21:16:43.750Z,17.42
2022-08-29T21:19:02.068Z,17.36
2022-08-29T21:21:22.000Z,17.25
2022-08-29T21:23:41.658Z,17.21
2022-08-29T21:25:58.761Z,17.13
2022-08-29T21:28:15.794Z,17.11
2022-08-29T21:30:32.732Z,17.07
2022-08-29T21:32:49.806Z,17.05
2022-08-29T21:35:07.766Z,16.98
2022-08-29T21:37:25.064Z,16.92
2022-08-29T21:39:42.128Z,16.87
2022-08-29T21:42:00.964Z,16.87
2022-08-29T21:44:20.075Z,16.83
2022-08-29T21:46:37.168Z,16.76
2022-08-29T21:48:56.661Z,16.74
2022-08-29T21:51:14.193Z,16.73
2022-08-29T21:53:31.499Z,16.71
2022-08-29T21:55:49.944Z,16.64
2022-08-29T21:58:08.174Z,16.60
2022-08-29T22:00:25.522Z,16.58
2022-08-29T22:02:42.601Z,16.55
2022-08-29T22:04:59.719Z,16.52
2022-08-29T22:07:16.805Z,16.50
2022-08-29T22:09:33.792Z,16.41
2022-08-29T22:11:51.066Z,16.38
2022-08-29T22:14:07.970Z,16.34
2022-08-29T22:16:25.023Z,16.30
2022-08-29T22:18:42.011Z,16.22
2022-08-29T22:20:58.966Z,16.15
2022-08-29T22:23:17.518Z,16.15
2022-08-29T22:25:37.062Z,16.15
2022-08-29T22:27:54.406Z,16.08
2022-08-29T22:30:15.541Z,16.03
2022-08-29T22:32:35.913Z,15.97
2022-08-29T22:34:53.152Z,15.93
2022-08-29T22:37:10.397Z,15.89
2022-08-29T22:39:27.340Z,15.84
2022-08-29T22:41:47.524Z,15.80
2022-08-29T22:46:41.708Z,15.76
2022-08-29T22:48:58.691Z,15.73
2022-08-29T22:51:15.993Z,15.70
2022-08-29T22:53:33.055Z,15.66
2022-08-29T22:55:50.010Z,15.61
2022-08-29T22:58:06.943Z,15.54
2022-08-29T23:00:23.879Z,15.54
2022-08-29T23:02:41.257Z,15.53
2022-08-29T23:04:58.193Z,15.49
2022-08-29T23:07:15.166Z,15.47
2022-08-29T23:09:35.392Z,15.40
2022-08-29T23:11:52.985Z,15.36
2022-08-29T23:14:12.443Z,15.34
2022-08-29T23:16:29.675Z,15.29
2022-08-29T23:18:46.553Z,15.26
2022-08-29T23:21:03.613Z,15.21
2022-08-29T23:23:21.672Z,15.18
2022-08-29T23:25:38.605Z,15.13
2022-08-29T23:27:55.913Z,15.12
2022-08-29T23:30:13.170Z,15.13
2022-08-29T23:32:30.475Z,15.13
2022-08-29T23:34:47.441Z,15.11
2022-08-29T23:37:04.469Z,15.13
2022-08-29T23:39:21.844Z,15.07
2022-08-29T23:41:39.130Z,15.00
2022-08-29T23:43:55.987Z,14.96
2022-08-29T23:46:13.337Z,14.91
2022-08-29T23:48:30.444Z,14.87
2022-08-29T23:50:48.994Z,14.82
2022-08-29T23:53:05.997Z,14.86
2022-08-29T23:55:23.100Z,14.85
2022-08-29T23:57:42.679Z,14.80
2022-08-29T23:59:59.681Z,14.76
